Terminal Aerodrome Forecast
Issued by NWS Goodland, KS

Home | Current Version | Previous Version | Text Only | Print | Product List | Glossary On
Versions: 1 2 3 4 5 6 7 8 9 10 11 12 13 14 15
000
FTUS43 KGLD 250531
TAFGLD
TAF
KGLD 250531Z 2506/2606 20010KT P6SM OVC200
     FM251900 32012KT P6SM SCT200
     FM260000 36010KT 5SM BR SCT003 BKN015
     FM260300 36010KT 1SM BR BKN005=

USA.gov is the U.S. government's official web portal to all federal, state and local government web resources and services.